sensor_id;sensor_type;location;lat;lon;timestamp;temperature;humidity
16999;DHT22;10211;49.476;11.010;2023-03-23T00:00:55;10.20;99.90
16999;DHT22;10211;49.476;11.010;2023-03-23T00:03:22;10.10;99.90
16999;DHT22;10211;49.476;11.010;2023-03-23T00:05:51;10.10;99.90
16999;DHT22;10211;49.476;11.010;2023-03-23T00:08:18;10.00;99.90
16999;DHT22;10211;49.476;11.010;2023-03-23T00:10:48;9.90;99.90
16999;DHT22;10211;49.476;11.010;2023-03-23T00:13:14;9.90;99.90
16999;DHT22;10211;49.476;11.010;2023-03-23T00:15:46;9.90;99.90
16999;DHT22;10211;49.476;11.010;2023-03-23T00:18:15;9.80;99.90
16999;DHT22;10211;49.476;11.010;2023-03-23T00:20:47;9.90;99.90
16999;DHT22;10211;49.476;11.010;2023-03-23T00:23:16;9.90;99.90
16999;DHT22;10211;49.476;11.010;2023-03-23T00:25:46;9.90;99.90
16999;DHT22;10211;49.476;11.010;2023-03-23T00:28:13;9.90;99.90
16999;DHT22;10211;49.476;11.010;2023-03-23T00:30:40;10.00;99.90
16999;DHT22;10211;49.476;11.010;2023-03-23T00:33:08;10.00;99.90
16999;DHT22;10211;49.476;11.010;2023-03-23T00:35:38;10.10;99.90
16999;DHT22;10211;49.476;11.010;2023-03-23T00:38:05;10.50;99.90
16999;DHT22;10211;49.476;11.010;2023-03-23T00:40:33;10.50;99.90
16999;DHT22;10211;49.476;11.010;2023-03-23T00:43:01;10.50;99.90
16999;DHT22;10211;49.476;11.010;2023-03-23T00:45:29;10.50;99.90
16999;DHT22;10211;49.476;11.010;2023-03-23T00:47:55;10.60;99.90
16999;DHT22;10211;49.476;11.010;2023-03-23T00:50:28;10.50;99.90
16999;DHT22;10211;49.476;11.010;2023-03-23T00:52:55;10.50;99.90
16999;DHT22;10211;49.476;11.010;2023-03-23T00:55:22;10.50;99.90
16999;DHT22;10211;49.476;11.010;2023-03-23T00:57:50;10.50;99.90
16999;DHT22;10211;49.476;11.010;2023-03-23T01:00:18;10.60;99.90
16999;DHT22;10211;49.476;11.010;2023-03-23T01:02:45;10.50;99.90
16999;DHT22;10211;49.476;11.010;2023-03-23T01:05:12;10.40;99.90
16999;DHT22;10211;49.476;11.010;2023-03-23T01:07:40;10.40;99.90
16999;DHT22;10211;49.476;11.010;2023-03-23T01:10:08;10.40;99.90
16999;DHT22;10211;49.476;11.010;2023-03-23T01:12:34;10.40;99.90
16999;DHT22;10211;49.476;11.010;2023-03-23T01:15:03;10.40;99.90
16999;DHT22;10211;49.476;11.010;2023-03-23T01:17:29;10.40;99.90
16999;DHT22;10211;49.476;11.010;2023-03-23T01:19:56;10.50;99.90
16999;DHT22;10211;49.476;11.010;2023-03-23T01:22:23;10.50;99.90
16999;DHT22;10211;49.476;11.010;2023-03-23T01:24:50;10.50;99.90
16999;DHT22;10211;49.476;11.010;2023-03-23T01:27:17;10.50;99.90
16999;DHT22;10211;49.476;11.010;2023-03-23T01:29:43;10.50;99.90
16999;DHT22;10211;49.476;11.010;2023-03-23T01:32:11;10.50;99.90
16999;DHT22;10211;49.476;11.010;2023-03-23T01:34:38;10.60;99.90
16999;DHT22;10211;49.476;11.010;2023-03-23T01:37:05;10.60;99.90
16999;DHT22;10211;49.476;11.010;2023-03-23T01:39:31;10.60;99.90
16999;DHT22;10211;49.476;11.010;2023-03-23T01:41:58;10.60;99.90
16999;DHT22;10211;49.476;11.010;2023-03-23T01:45:17;10.70;99.90
16999;DHT22;10211;49.476;11.010;2023-03-23T01:47:49;10.70;99.90
16999;DHT22;10211;49.476;11.010;2023-03-23T01:50:19;10.80;99.90
16999;DHT22;10211;49.476;11.010;2023-03-23T01:52:48;10.80;99.90
16999;DHT22;10211;49.476;11.010;2023-03-23T01:55:17;10.90;99.90
16999;DHT22;10211;49.476;11.010;2023-03-23T01:57:44;11.00;99.90
16999;DHT22;10211;49.476;11.010;2023-03-23T02:00:12;11.10;99.90
16999;DHT22;10211;49.476;11.010;2023-03-23T02:02:41;11.20;99.90
16999;DHT22;10211;49.476;11.010;2023-03-23T02:05:12;11.20;99.90
16999;DHT22;10211;49.476;11.010;2023-03-23T02:07:40;11.30;99.90
16999;DHT22;10211;49.476;11.010;2023-03-23T02:10:08;11.30;99.90
16999;DHT22;10211;49.476;11.010;2023-03-23T02:12:34;11.40;99.90
16999;DHT22;10211;49.476;11.010;2023-03-23T02:15:02;11.40;99.90
16999;DHT22;10211;49.476;11.010;2023-03-23T02:17:33;11.50;99.90
16999;DHT22;10211;49.476;11.010;2023-03-23T02:20:29;11.60;99.90
16999;DHT22;10211;49.476;11.010;2023-03-23T02:26:11;11.70;99.90
16999;DHT22;10211;49.476;11.010;2023-03-23T02:31:46;11.80;99.90
16999;DHT22;10211;49.476;11.010;2023-03-23T02:34:21;11.80;99.90
16999;DHT22;10211;49.476;11.010;2023-03-23T02:36:55;11.90;99.90
16999;DHT22;10211;49.476;11.010;2023-03-23T02:39:26;11.90;99.90
16999;DHT22;10211;49.476;11.010;2023-03-23T02:41:58;11.90;99.90
16999;DHT22;10211;49.476;11.010;2023-03-23T02:44:28;11.90;99.90
16999;DHT22;10211;49.476;11.010;2023-03-23T02:46:56;11.90;99.90
16999;DHT22;10211;49.476;11.010;2023-03-23T02:49:27;12.00;99.90
16999;DHT22;10211;49.476;11.010;2023-03-23T02:51:56;12.00;99.90
16999;DHT22;10211;49.476;11.010;2023-03-23T02:54:26;11.90;99.90
16999;DHT22;10211;49.476;11.010;2023-03-23T02:56:54;11.90;99.90
16999;DHT22;10211;49.476;11.010;2023-03-23T02:59:21;11.90;99.90
16999;DHT22;10211;49.476;11.010;2023-03-23T03:02:01;11.90;99.90
16999;DHT22;10211;49.476;11.010;2023-03-23T03:04:31;11.80;99.90
16999;DHT22;10211;49.476;11.010;2023-03-23T03:07:10;11.80;99.90
16999;DHT22;10211;49.476;11.010;2023-03-23T03:09:46;11.90;99.90
16999;DHT22;10211;49.476;11.010;2023-03-23T03:12:22;11.90;99.90
16999;DHT22;10211;49.476;11.010;2023-03-23T03:14:57;11.90;99.90
16999;DHT22;10211;49.476;11.010;2023-03-23T03:17:29;11.90;99.90
16999;DHT22;10211;49.476;11.010;2023-03-23T03:20:02;11.80;99.90
16999;DHT22;10211;49.476;11.010;2023-03-23T03:22:33;11.80;99.90
16999;DHT22;10211;49.476;11.010;2023-03-23T03:25:03;11.80;99.90
16999;DHT22;10211;49.476;11.010;2023-03-23T03:27:31;11.70;99.90
16999;DHT22;10211;49.476;11.010;2023-03-23T03:29:59;11.70;99.90
16999;DHT22;10211;49.476;11.010;2023-03-23T03:32:31;11.70;99.90
16999;DHT22;10211;49.476;11.010;2023-03-23T03:35:02;11.70;99.90
16999;DHT22;10211;49.476;11.010;2023-03-23T03:37:33;11.60;99.90
16999;DHT22;10211;49.476;11.010;2023-03-23T03:40:04;11.60;99.90
16999;DHT22;10211;49.476;11.010;2023-03-23T03:42:36;11.50;99.90
16999;DHT22;10211;49.476;11.010;2023-03-23T03:45:04;11.40;99.90
16999;DHT22;10211;49.476;11.010;2023-03-23T03:47:31;11.30;99.90
16999;DHT22;10211;49.476;11.010;2023-03-23T03:49:57;11.20;99.90
16999;DHT22;10211;49.476;11.010;2023-03-23T03:52:25;11.10;99.90
16999;DHT22;10211;49.476;11.010;2023-03-23T03:54:53;11.10;99.90
16999;DHT22;10211;49.476;11.010;2023-03-23T03:57:20;11.10;99.90
16999;DHT22;10211;49.476;11.010;2023-03-23T03:59:47;11.10;99.90
16999;DHT22;10211;49.476;11.010;2023-03-23T04:02:13;11.00;99.90
16999;DHT22;10211;49.476;11.010;2023-03-23T04:04:45;11.00;99.90
16999;DHT22;10211;49.476;11.010;2023-03-23T04:07:12;11.00;99.90
16999;DHT22;10211;49.476;11.010;2023-03-23T04:09:40;11.00;99.90
16999;DHT22;10211;49.476;11.010;2023-03-23T04:12:07;11.00;99.90
16999;DHT22;10211;49.476;11.010;2023-03-23T04:14:34;11.00;99.90
16999;DHT22;10211;49.476;11.010;2023-03-23T04:17:00;11.10;99.90
16999;DHT22;10211;49.476;11.010;2023-03-23T04:19:28;11.10;99.90
16999;DHT22;10211;49.476;11.010;2023-03-23T04:21:58;11.20;99.90
16999;DHT22;10211;49.476;11.010;2023-03-23T04:24:25;11.20;99.90
16999;DHT22;10211;49.476;11.010;2023-03-23T04:26:55;11.20;99.90
16999;DHT22;10211;49.476;11.010;2023-03-23T04:29:21;11.20;99.90
16999;DHT22;10211;49.476;11.010;2023-03-23T04:31:48;11.30;99.90
16999;DHT22;10211;49.476;11.010;2023-03-23T04:34:16;11.30;99.90
16999;DHT22;10211;49.476;11.010;2023-03-23T04:36:43;11.30;99.90
16999;DHT22;10211;49.476;11.010;2023-03-23T04:39:12;11.30;99.90
16999;DHT22;10211;49.476;11.010;2023-03-23T04:41:39;11.30;99.90
16999;DHT22;10211;49.476;11.010;2023-03-23T04:44:07;11.30;99.90
16999;DHT22;10211;49.476;11.010;2023-03-23T04:46:34;11.30;99.90
16999;DHT22;10211;49.476;11.010;2023-03-23T04:49:02;11.40;99.90
16999;DHT22;10211;49.476;11.010;2023-03-23T04:51:29;11.40;99.90
16999;DHT22;10211;49.476;11.010;2023-03-23T04:53:56;11.40;99.90
16999;DHT22;10211;49.476;11.010;2023-03-23T04:56:23;11.40;99.90
16999;DHT22;10211;49.476;11.010;2023-03-23T04:58:50;11.40;99.90
16999;DHT22;10211;49.476;11.010;2023-03-23T05:01:18;11.40;99.90
16999;DHT22;10211;49.476;11.010;2023-03-23T05:03:45;12.10;99.90
16999;DHT22;10211;49.476;11.010;2023-03-23T05:06:11;11.40;99.90
16999;DHT22;10211;49.476;11.010;2023-03-23T05:08:39;11.30;99.90
16999;DHT22;10211;49.476;11.010;2023-03-23T05:11:06;11.40;99.90
16999;DHT22;10211;49.476;11.010;2023-03-23T05:13:34;11.40;99.90
16999;DHT22;10211;49.476;11.010;2023-03-23T05:16:03;11.40;99.90
16999;DHT22;10211;49.476;11.010;2023-03-23T05:18:32;11.40;99.90
16999;DHT22;10211;49.476;11.010;2023-03-23T05:21:00;11.40;99.90
16999;DHT22;10211;49.476;11.010;2023-03-23T05:23:27;11.40;99.90
16999;DHT22;10211;49.476;11.010;2023-03-23T05:25:57;11.40;99.90
16999;DHT22;10211;49.476;11.010;2023-03-23T05:28:26;11.50;99.90
16999;DHT22;10211;49.476;11.010;2023-03-23T05:30:52;11.50;99.90
16999;DHT22;10211;49.476;11.010;2023-03-23T05:33:21;11.50;99.90
16999;DHT22;10211;49.476;11.010;2023-03-23T05:35:49;11.50;99.90
16999;DHT22;10211;49.476;11.010;2023-03-23T05:38:16;11.60;99.90
16999;DHT22;10211;49.476;11.010;2023-03-23T05:40:43;11.60;99.90
16999;DHT22;10211;49.476;11.010;2023-03-23T05:43:10;11.70;99.90
16999;DHT22;10211;49.476;11.010;2023-03-23T05:45:37;11.70;99.90
16999;DHT22;10211;49.476;11.010;2023-03-23T05:48:04;11.80;99.90
16999;DHT22;10211;49.476;11.010;2023-03-23T05:50:31;11.80;99.90
16999;DHT22;10211;49.476;11.010;2023-03-23T05:52:59;11.90;99.90
16999;DHT22;10211;49.476;11.010;2023-03-23T05:55:27;12.00;99.90
16999;DHT22;10211;49.476;11.010;2023-03-23T05:57:53;12.00;99.90
16999;DHT22;10211;49.476;11.010;2023-03-23T06:00:21;12.10;99.90
16999;DHT22;10211;49.476;11.010;2023-03-23T06:02:49;12.10;99.90
16999;DHT22;10211;49.476;11.010;2023-03-23T06:05:16;12.10;99.90
16999;DHT22;10211;49.476;11.010;2023-03-23T06:07:43;12.20;99.90
16999;DHT22;10211;49.476;11.010;2023-03-23T06:10:11;12.30;99.90
16999;DHT22;10211;49.476;11.010;2023-03-23T06:12:39;12.30;99.90
16999;DHT22;10211;49.476;11.010;2023-03-23T06:15:07;12.40;99.90
16999;DHT22;10211;49.476;11.010;2023-03-23T06:17:34;12.50;99.90
16999;DHT22;10211;49.476;11.010;2023-03-23T06:20:01;12.60;99.90
16999;DHT22;10211;49.476;11.010;2023-03-23T06:22:34;12.60;99.90
16999;DHT22;10211;49.476;11.010;2023-03-23T06:25:01;12.70;99.90
16999;DHT22;10211;49.476;11.010;2023-03-23T06:27:29;12.70;99.90
16999;DHT22;10211;49.476;11.010;2023-03-23T06:29:56;12.70;99.90
16999;DHT22;10211;49.476;11.010;2023-03-23T06:32:23;12.70;99.90
16999;DHT22;10211;49.476;11.010;2023-03-23T06:34:51;12.70;99.90
16999;DHT22;10211;49.476;11.010;2023-03-23T06:37:18;12.70;99.90
16999;DHT22;10211;49.476;11.010;2023-03-23T06:39:45;12.70;99.90
16999;DHT22;10211;49.476;11.010;2023-03-23T06:42:12;12.80;99.90
16999;DHT22;10211;49.476;11.010;2023-03-23T06:44:40;12.70;99.90
16999;DHT22;10211;49.476;11.010;2023-03-23T06:47:07;12.90;99.90
16999;DHT22;10211;49.476;11.010;2023-03-23T06:49:34;13.00;99.90
16999;DHT22;10211;49.476;11.010;2023-03-23T06:52:00;13.10;99.90
16999;DHT22;10211;49.476;11.010;2023-03-23T06:54:28;13.20;99.90
16999;DHT22;10211;49.476;11.010;2023-03-23T06:56:55;13.40;99.90
16999;DHT22;10211;49.476;11.010;2023-03-23T06:59:22;13.50;99.90
16999;DHT22;10211;49.476;11.010;2023-03-23T07:01:50;13.70;99.40
16999;DHT22;10211;49.476;11.010;2023-03-23T07:04:17;14.00;99.00
16999;DHT22;10211;49.476;11.010;2023-03-23T07:06:44;14.20;97.90
16999;DHT22;10211;49.476;11.010;2023-03-23T07:09:10;14.40;97.40
16999;DHT22;10211;49.476;11.010;2023-03-23T07:11:37;14.50;96.80
16999;DHT22;10211;49.476;11.010;2023-03-23T07:14:04;14.80;96.40
16999;DHT22;10211;49.476;11.010;2023-03-23T07:16:31;14.90;96.10
16999;DHT22;10211;49.476;11.010;2023-03-23T07:18:59;15.10;95.60
16999;DHT22;10211;49.476;11.010;2023-03-23T07:21:26;15.30;94.80
16999;DHT22;10211;49.476;11.010;2023-03-23T07:23:53;15.20;94.80
16999;DHT22;10211;49.476;11.010;2023-03-23T07:26:20;15.30;94.60
16999;DHT22;10211;49.476;11.010;2023-03-23T07:28:47;15.30;94.30
16999;DHT22;10211;49.476;11.010;2023-03-23T07:31:13;15.20;94.20
16999;DHT22;10211;49.476;11.010;2023-03-23T07:33:40;15.00;94.30
16999;DHT22;10211;49.476;11.010;2023-03-23T07:36:09;14.90;94.50
16999;DHT22;10211;49.476;11.010;2023-03-23T07:38:36;14.80;94.90
16999;DHT22;10211;49.476;11.010;2023-03-23T07:41:05;14.60;94.90
16999;DHT22;10211;49.476;11.010;2023-03-23T07:43:32;14.60;95.30
16999;DHT22;10211;49.476;11.010;2023-03-23T07:45:59;14.60;95.30
16999;DHT22;10211;49.476;11.010;2023-03-23T07:48:26;14.60;95.50
16999;DHT22;10211;49.476;11.010;2023-03-23T07:50:53;14.60;95.50
16999;DHT22;10211;49.476;11.010;2023-03-23T07:53:21;14.70;96.00
16999;DHT22;10211;49.476;11.010;2023-03-23T07:55:49;14.80;96.30
16999;DHT22;10211;49.476;11.010;2023-03-23T07:58:16;14.80;97.40
16999;DHT22;10211;49.476;11.010;2023-03-23T08:00:45;14.90;97.40
16999;DHT22;10211;49.476;11.010;2023-03-23T08:03:14;14.90;98.70
16999;DHT22;10211;49.476;11.010;2023-03-23T08:05:40;15.00;99.40
16999;DHT22;10211;49.476;11.010;2023-03-23T08:08:08;15.10;99.90
16999;DHT22;10211;49.476;11.010;2023-03-23T08:10:37;15.20;99.90
16999;DHT22;10211;49.476;11.010;2023-03-23T08:13:04;15.20;99.90
16999;DHT22;10211;49.476;11.010;2023-03-23T08:15:31;15.10;99.60
16999;DHT22;10211;49.476;11.010;2023-03-23T08:17:59;15.10;99.30
16999;DHT22;10211;49.476;11.010;2023-03-23T08:20:26;15.00;98.70
16999;DHT22;10211;49.476;11.010;2023-03-23T08:22:54;15.00;99.10
16999;DHT22;10211;49.476;11.010;2023-03-23T08:25:23;14.90;99.70
16999;DHT22;10211;49.476;11.010;2023-03-23T08:27:52;14.70;99.90
16999;DHT22;10211;49.476;11.010;2023-03-23T08:30:20;14.50;99.90
16999;DHT22;10211;49.476;11.010;2023-03-23T08:32:47;14.30;99.90
16999;DHT22;10211;49.476;11.010;2023-03-23T08:35:15;14.20;99.90
16999;DHT22;10211;49.476;11.010;2023-03-23T08:37:42;14.10;99.90
16999;DHT22;10211;49.476;11.010;2023-03-23T08:40:11;14.10;99.90
16999;DHT22;10211;49.476;11.010;2023-03-23T08:42:42;14.10;99.90
16999;DHT22;10211;49.476;11.010;2023-03-23T08:45:13;14.10;99.90
16999;DHT22;10211;49.476;11.010;2023-03-23T08:47:42;14.10;99.90
16999;DHT22;10211;49.476;11.010;2023-03-23T08:50:12;14.20;99.90
16999;DHT22;10211;49.476;11.010;2023-03-23T08:52:40;14.30;99.90
16999;DHT22;10211;49.476;11.010;2023-03-23T08:55:07;14.50;99.90
16999;DHT22;10211;49.476;11.010;2023-03-23T08:57:35;14.60;99.90
16999;DHT22;10211;49.476;11.010;2023-03-23T09:00:03;14.70;99.90
16999;DHT22;10211;49.476;11.010;2023-03-23T09:02:40;14.70;99.90
16999;DHT22;10211;49.476;11.010;2023-03-23T09:05:08;14.80;99.90
16999;DHT22;10211;49.476;11.010;2023-03-23T09:07:36;14.80;99.90
16999;DHT22;10211;49.476;11.010;2023-03-23T09:10:03;14.90;99.90
16999;DHT22;10211;49.476;11.010;2023-03-23T09:12:30;15.10;99.90
16999;DHT22;10211;49.476;11.010;2023-03-23T09:14:57;15.30;99.90
16999;DHT22;10211;49.476;11.010;2023-03-23T09:17:23;15.40;99.90
16999;DHT22;10211;49.476;11.010;2023-03-23T09:19:52;15.60;99.90
16999;DHT22;10211;49.476;11.010;2023-03-23T09:22:19;15.80;99.90
16999;DHT22;10211;49.476;11.010;2023-03-23T09:24:48;15.90;99.90
16999;DHT22;10211;49.476;11.010;2023-03-23T09:27:15;16.00;99.60
16999;DHT22;10211;49.476;11.010;2023-03-23T09:29:42;16.10;98.20
16999;DHT22;10211;49.476;11.010;2023-03-23T09:32:09;16.20;97.90
16999;DHT22;10211;49.476;11.010;2023-03-23T09:34:38;16.30;97.00
16999;DHT22;10211;49.476;11.010;2023-03-23T09:37:07;16.40;97.10
16999;DHT22;10211;49.476;11.010;2023-03-23T09:39:34;16.50;96.70
16999;DHT22;10211;49.476;11.010;2023-03-23T09:42:19;16.60;96.30
16999;DHT22;10211;49.476;11.010;2023-03-23T09:45:06;16.60;95.80
16999;DHT22;10211;49.476;11.010;2023-03-23T09:47:40;16.60;94.90
16999;DHT22;10211;49.476;11.010;2023-03-23T09:50:12;16.70;94.10
16999;DHT22;10211;49.476;11.010;2023-03-23T09:52:43;16.80;94.40
16999;DHT22;10211;49.476;11.010;2023-03-23T09:55:13;17.00;93.80
16999;DHT22;10211;49.476;11.010;2023-03-23T09:57:46;17.10;93.20
16999;DHT22;10211;49.476;11.010;2023-03-23T10:00:18;17.30;93.10
16999;DHT22;10211;49.476;11.010;2023-03-23T10:02:49;17.40;92.90
16999;DHT22;10211;49.476;11.010;2023-03-23T10:05:33;17.30;92.40
16999;DHT22;10211;49.476;11.010;2023-03-23T10:08:05;17.10;92.00
16999;DHT22;10211;49.476;11.010;2023-03-23T10:10:43;17.00;92.30
16999;DHT22;10211;49.476;11.010;2023-03-23T10:13:20;17.00;92.60
16999;DHT22;10211;49.476;11.010;2023-03-23T10:15:50;16.90;92.40
16999;DHT22;10211;49.476;11.010;2023-03-23T10:18:21;16.60;93.20
16999;DHT22;10211;49.476;11.010;2023-03-23T10:20:54;16.40;93.90
16999;DHT22;10211;49.476;11.010;2023-03-23T10:23:49;16.20;94.10
16999;DHT22;10211;49.476;11.010;2023-03-23T10:26:28;16.00;94.20
16999;DHT22;10211;49.476;11.010;2023-03-23T10:28:59;15.80;95.00
16999;DHT22;10211;49.476;11.010;2023-03-23T10:31:30;15.70;95.50
16999;DHT22;10211;49.476;11.010;2023-03-23T10:34:02;15.60;95.60
16999;DHT22;10211;49.476;11.010;2023-03-23T10:36:34;15.50;96.00
16999;DHT22;10211;49.476;11.010;2023-03-23T10:39:10;15.50;96.10
16999;DHT22;10211;49.476;11.010;2023-03-23T10:41:38;15.50;96.20
16999;DHT22;10211;49.476;11.010;2023-03-23T10:44:24;15.40;96.40
16999;DHT22;10211;49.476;11.010;2023-03-23T10:46:57;15.50;96.80
16999;DHT22;10211;49.476;11.010;2023-03-23T10:49:26;15.50;96.90
16999;DHT22;10211;49.476;11.010;2023-03-23T10:54:49;15.60;97.00
16999;DHT22;10211;49.476;11.010;2023-03-23T10:57:22;15.50;97.10
16999;DHT22;10211;49.476;11.010;2023-03-23T10:59:51;15.30;97.60
16999;DHT22;10211;49.476;11.010;2023-03-23T11:02:19;15.40;97.70
16999;DHT22;10211;49.476;11.010;2023-03-23T11:04:54;15.40;98.10
16999;DHT22;10211;49.476;11.010;2023-03-23T11:07:26;15.30;98.40
16999;DHT22;10211;49.476;11.010;2023-03-23T11:09:55;15.40;98.60
16999;DHT22;10211;49.476;11.010;2023-03-23T11:12:24;15.30;98.90
16999;DHT22;10211;49.476;11.010;2023-03-23T11:15:09;15.10;99.00
16999;DHT22;10211;49.476;11.010;2023-03-23T11:17:40;15.10;99.40
16999;DHT22;10211;49.476;11.010;2023-03-23T11:20:11;15.10;99.80
16999;DHT22;10211;49.476;11.010;2023-03-23T11:22:38;15.10;99.90
16999;DHT22;10211;49.476;11.010;2023-03-23T11:25:06;15.00;99.90
16999;DHT22;10211;49.476;11.010;2023-03-23T11:27:33;15.00;99.90
16999;DHT22;10211;49.476;11.010;2023-03-23T11:30:10;15.00;99.90
16999;DHT22;10211;49.476;11.010;2023-03-23T11:32:42;14.90;99.90
16999;DHT22;10211;49.476;11.010;2023-03-23T11:35:16;14.90;99.90
16999;DHT22;10211;49.476;11.010;2023-03-23T11:37:47;14.90;99.90
16999;DHT22;10211;49.476;11.010;2023-03-23T11:40:16;14.80;99.90
16999;DHT22;10211;49.476;11.010;2023-03-23T11:42:46;14.90;99.90
16999;DHT22;10211;49.476;11.010;2023-03-23T11:45:18;14.90;99.90
16999;DHT22;10211;49.476;11.010;2023-03-23T11:47:54;15.10;99.90
16999;DHT22;10211;49.476;11.010;2023-03-23T11:50:23;15.30;99.90
16999;DHT22;10211;49.476;11.010;2023-03-23T11:52:55;15.40;99.90
16999;DHT22;10211;49.476;11.010;2023-03-23T11:55:30;15.40;99.90
16999;DHT22;10211;49.476;11.010;2023-03-23T11:58:02;15.30;99.90
16999;DHT22;10211;49.476;11.010;2023-03-23T12:00:33;15.20;99.90
16999;DHT22;10211;49.476;11.010;2023-03-23T12:03:25;15.10;99.90
16999;DHT22;10211;49.476;11.010;2023-03-23T12:06:02;15.10;99.90
16999;DHT22;10211;49.476;11.010;2023-03-23T12:08:47;15.20;99.90
16999;DHT22;10211;49.476;11.010;2023-03-23T12:11:20;15.30;99.90
16999;DHT22;10211;49.476;11.010;2023-03-23T12:13:59;15.50;99.90
16999;DHT22;10211;49.476;11.010;2023-03-23T12:16:37;15.80;99.90
16999;DHT22;10211;49.476;11.010;2023-03-23T12:19:18;16.10;99.90
16999;DHT22;10211;49.476;11.010;2023-03-23T12:21:54;16.40;99.90
16999;DHT22;10211;49.476;11.010;2023-03-23T12:24:31;16.40;99.80
16999;DHT22;10211;49.476;11.010;2023-03-23T12:27:07;16.30;99.70
16999;DHT22;10211;49.476;11.010;2023-03-23T12:30:07;16.20;99.90
16999;DHT22;10211;49.476;11.010;2023-03-23T12:32:45;16.30;99.80
16999;DHT22;10211;49.476;11.010;2023-03-23T12:35:26;16.50;99.90
16999;DHT22;10211;49.476;11.010;2023-03-23T12:38:09;16.80;99.10
16999;DHT22;10211;49.476;11.010;2023-03-23T12:40:48;17.10;98.40
16999;DHT22;10211;49.476;11.010;2023-03-23T12:43:23;17.00;97.40
16999;DHT22;10211;49.476;11.010;2023-03-23T12:46:02;16.70;98.20
16999;DHT22;10211;49.476;11.010;2023-03-23T12:48:35;16.80;98.50
16999;DHT22;10211;49.476;11.010;2023-03-23T12:51:11;16.70;98.40
16999;DHT22;10211;49.476;11.010;2023-03-23T12:53:46;16.70;98.50
16999;DHT22;10211;49.476;11.010;2023-03-23T12:56:17;16.80;98.40
16999;DHT22;10211;49.476;11.010;2023-03-23T12:58:46;16.90;98.30
16999;DHT22;10211;49.476;11.010;2023-03-23T13:01:17;16.90;98.60
16999;DHT22;10211;49.476;11.010;2023-03-23T13:03:51;17.00;98.20
16999;DHT22;10211;49.476;11.010;2023-03-23T13:06:23;17.00;97.90
16999;DHT22;10211;49.476;11.010;2023-03-23T13:08:55;17.10;97.20
16999;DHT22;10211;49.476;11.010;2023-03-23T13:11:30;17.00;97.20
16999;DHT22;10211;49.476;11.010;2023-03-23T13:14:12;16.90;97.20
16999;DHT22;10211;49.476;11.010;2023-03-23T13:16:46;17.00;97.40
16999;DHT22;10211;49.476;11.010;2023-03-23T13:19:19;17.30;97.10
16999;DHT22;10211;49.476;11.010;2023-03-23T13:21:53;17.30;96.60
16999;DHT22;10211;49.476;11.010;2023-03-23T13:24:24;17.30;95.60
16999;DHT22;10211;49.476;11.010;2023-03-23T13:26:53;17.20;95.40
16999;DHT22;10211;49.476;11.010;2023-03-23T13:29:23;17.10;95.70
16999;DHT22;10211;49.476;11.010;2023-03-23T13:32:03;17.30;95.80
16999;DHT22;10211;49.476;11.010;2023-03-23T13:34:32;17.40;95.80
16999;DHT22;10211;49.476;11.010;2023-03-23T13:37:00;17.40;95.30
16999;DHT22;10211;49.476;11.010;2023-03-23T13:39:31;17.30;95.50
16999;DHT22;10211;49.476;11.010;2023-03-23T13:42:02;17.20;95.60
16999;DHT22;10211;49.476;11.010;2023-03-23T13:44:43;17.40;95.80
16999;DHT22;10211;49.476;11.010;2023-03-23T13:47:25;17.70;95.20
16999;DHT22;10211;49.476;11.010;2023-03-23T13:49:57;18.10;94.60
16999;DHT22;10211;49.476;11.010;2023-03-23T13:52:38;18.30;94.30
16999;DHT22;10211;49.476;11.010;2023-03-23T13:55:20;18.40;93.90
16999;DHT22;10211;49.476;11.010;2023-03-23T13:57:52;18.30;93.40
16999;DHT22;10211;49.476;11.010;2023-03-23T14:00:45;18.10;93.30
16999;DHT22;10211;49.476;11.010;2023-03-23T14:03:15;17.70;93.50
16999;DHT22;10211;49.476;11.010;2023-03-23T14:05:45;17.70;94.20
16999;DHT22;10211;49.476;11.010;2023-03-23T14:08:21;17.70;94.30
16999;DHT22;10211;49.476;11.010;2023-03-23T14:10:52;17.60;94.10
16999;DHT22;10211;49.476;11.010;2023-03-23T14:13:24;17.50;94.40
16999;DHT22;10211;49.476;11.010;2023-03-23T14:15:57;17.50;94.50
16999;DHT22;10211;49.476;11.010;2023-03-23T14:18:29;17.50;94.60
16999;DHT22;10211;49.476;11.010;2023-03-23T14:20:59;17.50;94.50
16999;DHT22;10211;49.476;11.010;2023-03-23T14:23:25;17.50;94.30
16999;DHT22;10211;49.476;11.010;2023-03-23T14:25:58;17.50;94.50
16999;DHT22;10211;49.476;11.010;2023-03-23T14:28:31;17.40;94.40
16999;DHT22;10211;49.476;11.010;2023-03-23T14:30:58;17.40;94.70
16999;DHT22;10211;49.476;11.010;2023-03-23T14:33:26;17.20;94.80
16999;DHT22;10211;49.476;11.010;2023-03-23T14:35:53;17.10;95.00
16999;DHT22;10211;49.476;11.010;2023-03-23T14:38:25;17.10;95.40
16999;DHT22;10211;49.476;11.010;2023-03-23T14:41:00;17.20;95.30
16999;DHT22;10211;49.476;11.010;2023-03-23T14:43:28;17.20;95.40
16999;DHT22;10211;49.476;11.010;2023-03-23T14:45:58;17.20;95.60
16999;DHT22;10211;49.476;11.010;2023-03-23T14:48:25;17.20;95.40
16999;DHT22;10211;49.476;11.010;2023-03-23T14:50:57;17.10;95.30
16999;DHT22;10211;49.476;11.010;2023-03-23T14:53:31;17.10;95.70
16999;DHT22;10211;49.476;11.010;2023-03-23T14:56:00;17.20;95.30
16999;DHT22;10211;49.476;11.010;2023-03-23T14:58:28;17.50;95.90
16999;DHT22;10211;49.476;11.010;2023-03-23T15:00:57;17.10;95.60
16999;DHT22;10211;49.476;11.010;2023-03-23T15:03:25;16.90;95.50
16999;DHT22;10211;49.476;11.010;2023-03-23T15:05:56;16.70;95.90
16999;DHT22;10211;49.476;11.010;2023-03-23T15:08:27;16.50;96.00
16999;DHT22;10211;49.476;11.010;2023-03-23T15:11:04;16.40;96.20
16999;DHT22;10211;49.476;11.010;2023-03-23T15:13:32;16.20;96.50
16999;DHT22;10211;49.476;11.010;2023-03-23T15:16:05;16.10;96.80
16999;DHT22;10211;49.476;11.010;2023-03-23T15:18:35;16.00;97.20
16999;DHT22;10211;49.476;11.010;2023-03-23T15:21:10;16.00;97.30
16999;DHT22;10211;49.476;11.010;2023-03-23T15:23:43;15.80;97.50
16999;DHT22;10211;49.476;11.010;2023-03-23T15:26:26;15.70;97.80
16999;DHT22;10211;49.476;11.010;2023-03-23T15:29:14;15.70;97.90
16999;DHT22;10211;49.476;11.010;2023-03-23T15:31:44;15.60;98.10
16999;DHT22;10211;49.476;11.010;2023-03-23T15:34:16;15.60;98.40
16999;DHT22;10211;49.476;11.010;2023-03-23T15:36:44;15.60;98.50
16999;DHT22;10211;49.476;11.010;2023-03-23T15:39:13;15.60;98.60
16999;DHT22;10211;49.476;11.010;2023-03-23T15:41:47;15.80;98.60
16999;DHT22;10211;49.476;11.010;2023-03-23T15:44:28;15.80;98.60
16999;DHT22;10211;49.476;11.010;2023-03-23T15:47:13;16.00;98.60